createdAt,value
2022-09-01T00:00:02.051Z,10.73
2022-09-01T00:02:29.687Z,10.79
2022-09-01T00:04:58.483Z,10.98
2022-09-01T00:07:32.478Z,10.89
2022-09-01T00:10:00.559Z,10.83
2022-09-01T00:12:27.973Z,10.82
2022-09-01T00:14:54.622Z,10.77
2022-09-01T00:17:21.251Z,10.75
2022-09-01T00:19:47.825Z,10.67
2022-09-01T00:22:14.286Z,10.56
2022-09-01T00:24:40.757Z,10.58
2022-09-01T00:27:07.289Z,10.44
2022-09-01T00:29:34.088Z,10.44
2022-09-01T00:32:00.536Z,10.46
2022-09-01T00:34:27.092Z,10.37
2022-09-01T00:36:53.595Z,10.51
2022-09-01T00:39:20.196Z,10.50
2022-09-01T00:41:47.836Z,10.53
2022-09-01T00:44:18.958Z,10.40
2022-09-01T00:46:55.670Z,10.38
2022-09-01T00:49:27.539Z,10.23
2022-09-01T00:51:57.421Z,10.37
2022-09-01T00:54:28.873Z,10.28
2022-09-01T00:56:57.795Z,10.25
2022-09-01T00:59:26.929Z,10.32
2022-09-01T01:01:54.282Z,10.31
2022-09-01T01:04:20.822Z,10.28
2022-09-01T01:06:58.459Z,10.29
2022-09-01T01:09:27.243Z,10.13
2022-09-01T01:11:54.220Z,10.37
2022-09-01T01:14:20.763Z,10.17
2022-09-01T01:16:50.791Z,10.27
2022-09-01T01:19:48.222Z,10.29
2022-09-01T01:22:43.493Z,10.23
2022-09-01T01:25:12.762Z,10.13
2022-09-01T01:27:42.818Z,10.09
2022-09-01T01:30:12.261Z,10.12
2022-09-01T01:32:43.194Z,10.16
2022-09-01T01:35:14.625Z,10.05
2022-09-01T01:37:46.663Z,9.96
2022-09-01T01:40:15.887Z,9.85
2022-09-01T01:42:48.030Z,9.67
2022-09-01T01:45:19.838Z,9.72
2022-09-01T01:47:53.327Z,9.76
2022-09-01T01:50:35.540Z,9.89
2022-09-01T01:53:10.795Z,9.93
2022-09-01T01:55:39.405Z,9.85
2022-09-01T01:58:09.415Z,9.83
2022-09-01T02:00:37.723Z,9.83
2022-09-01T02:03:05.178Z,9.83
2022-09-01T02:05:35.375Z,9.71
2022-09-01T02:08:11.100Z,9.68
2022-09-01T02:10:46.796Z,9.81
2022-09-01T02:13:16.501Z,9.91
2022-09-01T02:15:49.348Z,9.64
2022-09-01T02:18:26.338Z,9.67
2022-09-01T02:20:53.819Z,9.62
2022-09-01T02:23:25.085Z,9.48
2022-09-01T02:26:15.042Z,9.38
2022-09-01T02:28:44.116Z,9.37
2022-09-01T02:31:11.759Z,9.46
2022-09-01T02:33:39.825Z,9.40
2022-09-01T02:36:10.075Z,9.50
2022-09-01T02:38:36.584Z,9.47
2022-09-01T02:41:05.556Z,9.39
2022-09-01T02:43:32.097Z,9.35
2022-09-01T02:46:00.906Z,9.29
2022-09-01T02:48:35.776Z,9.26
2022-09-01T02:51:10.391Z,9.28
2022-09-01T02:53:39.229Z,9.37
2022-09-01T02:56:14.414Z,9.32
2022-09-01T02:58:46.115Z,9.22
2022-09-01T03:01:22.612Z,9.11
2022-09-01T03:03:51.429Z,9.18
2022-09-01T03:06:19.832Z,9.16
2022-09-01T03:08:47.905Z,9.14
2022-09-01T03:11:14.390Z,9.20
2022-09-01T03:13:41.787Z,9.08
2022-09-01T03:16:09.611Z,9.03
2022-09-01T03:18:36.853Z,9.04
2022-09-01T03:21:05.212Z,9.01
2022-09-01T03:23:33.910Z,8.94
2022-09-01T03:26:03.665Z,8.94
2022-09-01T03:28:30.440Z,8.82
2022-09-01T03:30:58.364Z,8.84
2022-09-01T03:33:27.549Z,8.77
2022-09-01T03:35:55.018Z,9.00
2022-09-01T03:38:24.163Z,9.01
2022-09-01T03:40:53.543Z,8.93
2022-09-01T03:43:24.881Z,9.03
2022-09-01T03:45:51.688Z,9.04
2022-09-01T03:48:19.317Z,9.08
2022-09-01T03:50:47.145Z,9.08
2022-09-01T03:53:17.794Z,9.10
2022-09-01T03:55:46.421Z,9.09
2022-09-01T03:58:19.003Z,9.09
2022-09-01T04:00:49.499Z,9.32
2022-09-01T04:03:28.995Z,9.16
2022-09-01T04:05:59.186Z,9.34
2022-09-01T04:08:32.289Z,9.52
2022-09-01T04:11:03.791Z,9.17
2022-09-01T04:13:35.460Z,9.40
2022-09-01T04:16:02.680Z,9.66
2022-09-01T04:18:30.574Z,9.90
2022-09-01T04:20:59.355Z,9.88
2022-09-01T04:23:33.449Z,9.89
2022-09-01T04:26:08.907Z,10.03
2022-09-01T04:28:45.975Z,9.98
2022-09-01T04:31:21.581Z,10.05
2022-09-01T04:33:52.623Z,10.05
2022-09-01T04:36:30.763Z,10.09
2022-09-01T04:39:00.702Z,10.16
2022-09-01T04:41:32.061Z,10.19
2022-09-01T04:44:02.448Z,10.11
2022-09-01T04:46:31.284Z,10.15
2022-09-01T04:48:58.004Z,10.13
2022-09-01T04:51:28.139Z,10.26
2022-09-01T04:53:57.351Z,10.15
2022-09-01T04:56:26.636Z,10.16
2022-09-01T04:58:56.936Z,10.29
2022-09-01T05:01:27.417Z,10.28
2022-09-01T05:04:01.304Z,10.34
2022-09-01T05:06:29.480Z,10.38
2022-09-01T05:08:59.349Z,10.25
2022-09-01T05:11:27.756Z,10.32
2022-09-01T05:13:57.550Z,10.39
2022-09-01T05:16:27.163Z,10.51
2022-09-01T05:18:55.739Z,10.53
2022-09-01T05:21:26.423Z,10.53
2022-09-01T05:23:54.178Z,10.49
2022-09-01T05:26:26.574Z,10.28
2022-09-01T05:28:56.395Z,10.53
2022-09-01T05:31:24.230Z,10.56
2022-09-01T05:33:51.807Z,10.28
2022-09-01T05:36:23.560Z,10.43
2022-09-01T05:38:51.022Z,10.52
2022-09-01T05:41:20.359Z,10.61
2022-09-01T05:43:50.362Z,10.97
2022-09-01T05:46:20.624Z,11.23
2022-09-01T05:48:49.497Z,11.51
2022-09-01T05:51:42.809Z,11.65
2022-09-01T05:54:08.084Z,11.85
2022-09-01T05:56:43.242Z,12.18
2022-09-01T05:59:27.027Z,12.88
2022-09-01T06:01:54.717Z,12.98
2022-09-01T06:04:22.279Z,12.93
2022-09-01T06:07:05.752Z,13.26
2022-09-01T06:09:38.139Z,13.59
2022-09-01T06:12:06.733Z,13.71
2022-09-01T06:14:33.573Z,13.60
2022-09-01T06:17:01.056Z,13.35
2022-09-01T06:19:28.469Z,13.11
2022-09-01T06:21:56.770Z,12.98
2022-09-01T06:24:23.515Z,12.95
2022-09-01T06:26:50.016Z,12.87
2022-09-01T06:29:16.482Z,12.83
2022-09-01T06:31:47.485Z,12.90
2022-09-01T06:34:17.642Z,12.84
2022-09-01T06:36:45.838Z,12.99
2022-09-01T06:39:19.804Z,12.98
2022-09-01T06:41:53.227Z,13.04
2022-09-01T06:44:22.913Z,13.11
2022-09-01T06:46:53.003Z,13.26
2022-09-01T06:49:21.633Z,13.35
2022-09-01T06:51:52.766Z,13.29
2022-09-01T06:54:21.165Z,13.39
2022-09-01T06:56:51.701Z,13.66
2022-09-01T06:59:20.722Z,13.68
2022-09-01T07:04:39.374Z,14.42
2022-09-01T07:13:05.007Z,14.62
2022-09-01T07:18:21.294Z,16.63
2022-09-01T07:29:12.127Z,16.88
2022-09-01T07:32:43.791Z,17.37
2022-09-01T07:42:30.688Z,17.48
2022-09-01T07:42:30.980Z,13.81
2022-09-01T07:42:56.126Z,14.34
2022-09-01T07:45:30.223Z,18.01
2022-09-01T07:48:03.209Z,18.67
2022-09-01T07:51:07.605Z,20.58
2022-09-01T07:53:18.984Z,22.72
2022-09-01T07:55:47.020Z,23.06
2022-09-01T07:58:14.189Z,22.92
2022-09-01T08:00:45.052Z,22.60
2022-09-01T08:03:12.155Z,22.25
2022-09-01T08:05:38.840Z,22.10
2022-09-01T08:08:18.523Z,22.85
2022-09-01T08:10:49.022Z,24.70
2022-09-01T08:13:17.170Z,25.94
2022-09-01T08:18:47.953Z,26.04
2022-09-01T08:21:16.782Z,26.26
2022-09-01T08:23:44.234Z,25.92
2022-09-01T08:26:15.006Z,25.69
2022-09-01T08:28:45.880Z,25.54
2022-09-01T08:31:16.141Z,25.55
2022-09-01T08:33:44.370Z,25.62
2022-09-01T08:36:12.966Z,25.54
2022-09-01T08:38:40.908Z,24.75
2022-09-01T08:41:28.701Z,24.05
2022-09-01T08:44:04.238Z,24.61
2022-09-01T08:46:35.115Z,24.86
2022-09-01T08:49:24.809Z,25.03
2022-09-01T08:52:10.530Z,25.06
2022-09-01T08:54:49.356Z,25.67
2022-09-01T08:57:23.494Z,26.28
2022-09-01T08:59:50.165Z,26.47
2022-09-01T09:02:43.853Z,26.71
2022-09-01T09:05:32.170Z,26.69
2022-09-01T09:08:08.060Z,27.06
2022-09-01T09:11:04.162Z,27.38
2022-09-01T09:13:42.756Z,27.14
2022-09-01T09:16:16.667Z,27.62
2022-09-01T09:19:11.328Z,28.13
2022-09-01T09:21:43.335Z,27.90
2022-09-01T09:24:39.324Z,28.04
2022-09-01T09:27:07.052Z,28.36
2022-09-01T09:29:36.695Z,28.48
2022-09-01T09:32:22.607Z,29.14
2022-09-01T09:34:50.557Z,29.21
2022-09-01T09:37:19.496Z,27.65
2022-09-01T09:39:46.105Z,28.06
2022-09-01T09:42:15.240Z,28.01
2022-09-01T09:44:52.683Z,28.09
2022-09-01T09:47:44.182Z,28.17
2022-09-01T09:50:40.296Z,27.87
2022-09-01T09:53:28.043Z,27.90
2022-09-01T09:55:58.752Z,27.79
2022-09-01T09:58:34.640Z,27.17
2022-09-01T10:01:26.064Z,27.31
2022-09-01T10:03:56.236Z,27.61
2022-09-01T10:06:45.043Z,27.96
2022-09-01T10:09:37.092Z,28.32
2022-09-01T10:12:05.536Z,28.71
2022-09-01T10:14:53.366Z,29.36
2022-09-01T10:17:45.286Z,29.64
2022-09-01T10:20:21.054Z,29.47
2022-09-01T10:22:49.678Z,30.62
2022-09-01T10:25:33.162Z,31.49
2022-09-01T10:28:08.891Z,32.32
2022-09-01T10:30:37.591Z,31.77
2022-09-01T10:33:12.253Z,31.96
2022-09-01T10:35:49.587Z,33.01
2022-09-01T10:38:24.032Z,33.72
2022-09-01T10:41:07.920Z,31.96
2022-09-01T10:43:45.140Z,30.80
2022-09-01T10:46:25.841Z,29.73
2022-09-01T10:48:56.603Z,29.95
2022-09-01T10:51:38.352Z,30.98
2022-09-01T10:54:06.711Z,32.17
2022-09-01T10:56:51.285Z,32.87
2022-09-01T10:59:38.767Z,32.64
2022-09-01T11:02:27.123Z,32.93
2022-09-01T11:04:54.816Z,31.91
2022-09-01T11:07:44.344Z,30.85
2022-09-01T11:10:36.376Z,30.44
2022-09-01T11:13:23.366Z,30.16
2022-09-01T11:15:50.466Z,28.00
2022-09-01T11:18:29.546Z,28.81
2022-09-01T11:21:14.838Z,29.42
2022-09-01T11:23:41.540Z,29.72
2022-09-01T11:26:48.409Z,30.50
2022-09-01T11:29:53.263Z,29.97
2022-09-01T11:32:26.270Z,29.34
2022-09-01T11:34:54.960Z,29.41
2022-09-01T11:37:27.600Z,30.41
2022-09-01T11:40:03.673Z,30.63
2022-09-01T11:42:39.717Z,31.00
2022-09-01T11:45:23.408Z,27.93
2022-09-01T11:47:56.428Z,29.21
2022-09-01T11:50:33.232Z,31.11
2022-09-01T11:53:06.558Z,31.27
2022-09-01T11:55:40.830Z,29.70
2022-09-01T11:58:28.825Z,28.60
2022-09-01T12:01:00.485Z,28.06
2022-09-01T12:03:29.970Z,27.42
2022-09-01T12:06:03.939Z,28.06
2022-09-01T12:08:34.763Z,30.18
2022-09-01T12:11:03.747Z,29.58
2022-09-01T12:13:30.178Z,27.20
2022-09-01T12:16:19.399Z,27.04
2022-09-01T12:18:51.072Z,27.11
2022-09-01T12:21:23.558Z,26.42
2022-09-01T12:23:50.398Z,26.60
2022-09-01T12:26:23.481Z,25.85
2022-09-01T12:28:50.879Z,25.21
2022-09-01T12:31:22.033Z,24.44
2022-09-01T12:33:48.581Z,24.49
2022-09-01T12:36:21.784Z,24.36
2022-09-01T12:38:49.138Z,24.84
2022-09-01T12:41:39.529Z,24.32
2022-09-01T12:44:31.689Z,24.76
2022-09-01T12:47:04.734Z,26.19
2022-09-01T12:49:45.370Z,26.42
2022-09-01T12:52:25.880Z,27.29
2022-09-01T12:55:07.905Z,29.77
2022-09-01T12:57:48.442Z,29.23
2022-09-01T13:00:21.325Z,28.35
2022-09-01T13:02:50.769Z,28.14
2022-09-01T13:05:40.990Z,29.09
2022-09-01T13:08:12.102Z,28.53
2022-09-01T13:10:43.517Z,27.93
2022-09-01T13:13:11.269Z,27.14
2022-09-01T13:15:41.251Z,26.92
2022-09-01T13:18:07.683Z,28.10
2022-09-01T13:20:35.099Z,30.60
2022-09-01T13:23:02.020Z,33.24
2022-09-01T13:25:28.699Z,33.98
2022-09-01T13:27:55.532Z,32.15
2022-09-01T13:30:25.076Z,30.14
2022-09-01T13:35:38.701Z,28.55
2022-09-01T13:38:05.380Z,29.78
2022-09-01T13:40:32.002Z,31.14
2022-09-01T13:42:58.964Z,30.04
2022-09-01T13:45:25.847Z,29.39
2022-09-01T13:53:27.260Z,28.95
2022-09-01T13:55:53.869Z,30.02
2022-09-01T13:58:20.542Z,30.33
2022-09-01T14:00:47.513Z,30.32
2022-09-01T14:03:18.009Z,28.81
2022-09-01T14:05:47.727Z,30.68
2022-09-01T14:08:20.884Z,32.15
2022-09-01T14:10:50.829Z,32.48
2022-09-01T14:13:22.353Z,33.60
2022-09-01T14:15:49.459Z,33.76
2022-09-01T14:18:17.290Z,34.84
2022-09-01T14:20:47.168Z,34.67
2022-09-01T14:23:15.388Z,35.17
2022-09-01T14:25:45.574Z,35.71
2022-09-01T14:28:13.230Z,36.18
2022-09-01T14:30:42.622Z,36.64
2022-09-01T14:33:09.961Z,36.88
2022-09-01T14:35:39.710Z,37.60
2022-09-01T14:38:08.319Z,37.92
2022-09-01T14:40:37.838Z,36.00
2022-09-01T14:43:09.819Z,36.19
2022-09-01T14:45:39.633Z,36.80
2022-09-01T14:48:08.428Z,35.83
2022-09-01T14:50:40.923Z,34.17
2022-09-01T14:53:08.116Z,33.61
2022-09-01T14:55:34.599Z,31.14
2022-09-01T14:58:01.464Z,30.12
2022-09-01T15:00:30.066Z,29.30
2022-09-01T15:02:57.418Z,28.70
2022-09-01T15:05:24.848Z,28.06
2022-09-01T15:07:52.472Z,28.36
2022-09-01T15:10:24.823Z,29.35
2022-09-01T15:12:53.661Z,29.35
2022-09-01T15:15:20.259Z,30.55
2022-09-01T15:17:46.855Z,32.19
2022-09-01T15:20:32.159Z,32.63
2022-09-01T15:22:58.851Z,34.00
2022-09-01T15:25:25.629Z,32.59
2022-09-01T15:27:52.511Z,30.57
2022-09-01T15:30:20.237Z,29.12
2022-09-01T15:32:49.748Z,27.56
2022-09-01T15:35:17.023Z,27.13
2022-09-01T15:37:45.446Z,26.73
2022-09-01T15:40:12.768Z,26.08
2022-09-01T15:42:40.030Z,25.74
2022-09-01T15:45:11.984Z,25.41
2022-09-01T15:47:40.382Z,25.49
2022-09-01T15:50:11.788Z,25.68
2022-09-01T15:53:00.779Z,25.91
2022-09-01T15:55:30.387Z,26.11
2022-09-01T15:57:58.331Z,26.22
2022-09-01T16:00:27.190Z,26.34
2022-09-01T16:02:56.332Z,26.40
2022-09-01T16:05:22.929Z,26.33
2022-09-01T16:07:51.092Z,26.34
2022-09-01T16:10:18.330Z,26.33
2022-09-01T16:12:47.886Z,26.30
2022-09-01T16:15:16.806Z,26.02
2022-09-01T16:17:55.231Z,25.13
2022-09-01T16:20:25.186Z,24.86
2022-09-01T16:22:54.496Z,24.76
2022-09-01T16:25:31.463Z,24.65
2022-09-01T16:28:04.602Z,24.70
2022-09-01T16:30:31.092Z,24.47
2022-09-01T16:33:02.292Z,24.34
2022-09-01T16:35:44.713Z,24.56
2022-09-01T16:38:27.799Z,24.68
2022-09-01T16:41:16.099Z,24.59
2022-09-01T16:44:04.584Z,24.51
2022-09-01T16:46:37.707Z,24.43
2022-09-01T16:49:35.944Z,24.32
2022-09-01T16:52:09.908Z,24.44
2022-09-01T16:54:46.874Z,24.48
2022-09-01T16:57:27.105Z,24.46
2022-09-01T16:59:58.351Z,24.45
2022-09-01T17:02:50.957Z,24.30
2022-09-01T17:05:40.912Z,24.16
2022-09-01T17:08:21.590Z,24.15
2022-09-01T17:11:10.284Z,24.09
2022-09-01T17:13:47.447Z,24.02
2022-09-01T17:16:37.006Z,23.81
2022-09-01T17:19:07.372Z,23.66
2022-09-01T17:21:46.031Z,23.58
2022-09-01T17:24:43.927Z,23.60
2022-09-01T17:27:54.208Z,23.44
2022-09-01T17:30:21.012Z,23.31
2022-09-01T17:33:28.264Z,23.30
2022-09-01T17:36:09.085Z,23.21
2022-09-01T17:38:54.071Z,23.08
2022-09-01T17:41:55.743Z,22.94
2022-09-01T17:44:36.164Z,22.85
2022-09-01T17:47:40.463Z,22.68
2022-09-01T17:50:20.910Z,22.51
2022-09-01T17:52:53.290Z,22.40
2022-09-01T17:55:38.555Z,22.17
2022-09-01T17:58:27.023Z,22.08
2022-09-01T18:01:34.015Z,21.78
2022-09-01T18:04:39.514Z,21.60
2022-09-01T18:07:40.096Z,21.39
2022-09-01T18:10:11.544Z,21.26
2022-09-01T18:12:40.335Z,21.12
2022-09-01T18:15:11.132Z,20.88
2022-09-01T18:17:43.476Z,20.72
2022-09-01T18:20:32.865Z,20.63
2022-09-01T18:23:06.732Z,20.48
2022-09-01T18:25:47.799Z,20.31
2022-09-01T18:28:15.296Z,20.11
2022-09-01T18:30:54.686Z,19.99
2022-09-01T18:33:29.151Z,19.90
2022-09-01T18:36:13.843Z,19.76
2022-09-01T18:38:47.761Z,19.50
2022-09-01T18:41:55.531Z,19.39
2022-09-01T18:44:56.950Z,19.14
2022-09-01T18:47:33.191Z,18.96
2022-09-01T18:50:25.796Z,18.79
2022-09-01T18:52:55.369Z,18.57
2022-09-01T18:55:42.903Z,18.38
2022-09-01T18:58:26.412Z,18.19
2022-09-01T19:00:59.468Z,17.94
2022-09-01T19:03:39.782Z,17.85
2022-09-01T19:06:23.188Z,17.70
2022-09-01T19:09:00.860Z,17.54
2022-09-01T19:11:46.707Z,17.41
2022-09-01T19:14:38.514Z,17.25
2022-09-01T19:17:24.928Z,17.12
2022-09-01T19:20:05.485Z,16.95
2022-09-01T19:22:53.941Z,16.83
2022-09-01T19:25:36.452Z,16.66
2022-09-01T19:28:12.479Z,16.52
2022-09-01T19:30:50.433Z,16.40
2022-09-01T19:33:22.359Z,16.04
2022-09-01T19:35:53.252Z,16.05
2022-09-01T19:38:27.397Z,16.00
2022-09-01T19:41:23.507Z,16.02
2022-09-01T19:44:00.640Z,15.98
2022-09-01T19:46:59.596Z,15.97
2022-09-01T19:49:37.258Z,15.94
2022-09-01T19:52:07.852Z,15.91
2022-09-01T19:54:50.483Z,15.79
2022-09-01T19:57:25.357Z,15.72
2022-09-01T20:00:07.838Z,15.57
2022-09-01T20:02:38.498Z,15.42
2022-09-01T20:05:16.775Z,15.41
2022-09-01T20:07:57.887Z,15.27
2022-09-01T20:11:05.149Z,15.01
2022-09-01T20:14:20.261Z,15.02
2022-09-01T20:16:53.276Z,14.75
2022-09-01T20:19:42.650Z,14.90
2022-09-01T20:22:14.611Z,14.79
2022-09-01T20:24:41.437Z,14.69
2022-09-01T20:27:37.140Z,14.51
2022-09-01T20:30:06.779Z,14.50
2022-09-01T20:33:03.229Z,14.41
2022-09-01T20:35:36.284Z,14.34
2022-09-01T20:38:28.375Z,14.35
2022-09-01T20:40:58.905Z,14.44
2022-09-01T20:43:31.272Z,14.35
2022-09-01T20:45:57.898Z,14.38
2022-09-01T20:48:27.205Z,14.28
2022-09-01T20:51:11.632Z,14.09
2022-09-01T20:54:03.984Z,14.10
2022-09-01T20:56:52.432Z,14.14
2022-09-01T20:59:38.702Z,13.90
2022-09-01T21:02:38.186Z,13.97
2022-09-01T21:05:23.508Z,13.69
2022-09-01T21:07:52.949Z,13.83
2022-09-01T21:10:48.058Z,13.84
2022-09-01T21:13:26.645Z,13.73
2022-09-01T21:16:03.613Z,13.70
2022-09-01T21:18:52.352Z,13.64
2022-09-01T21:21:28.159Z,13.61
2022-09-01T21:23:54.661Z,13.63
2022-09-01T21:26:21.310Z,13.59
2022-09-01T21:28:53.173Z,13.50
2022-09-01T21:31:20.026Z,13.53
2022-09-01T21:33:46.657Z,13.49
2022-09-01T21:36:13.081Z,13.40
2022-09-01T21:38:39.511Z,13.41
2022-09-01T21:41:10.845Z,13.46
2022-09-01T21:43:43.766Z,13.39
2022-09-01T21:46:11.014Z,13.28
2022-09-01T21:48:37.561Z,13.35
2022-09-01T21:51:04.791Z,13.05
2022-09-01T21:53:32.546Z,12.95
2022-09-01T21:55:59.110Z,12.91
2022-09-01T21:58:25.597Z,12.97
2022-09-01T22:00:52.347Z,12.93
2022-09-01T22:03:18.895Z,13.00
2022-09-01T22:05:45.429Z,13.06
2022-09-01T22:08:14.165Z,12.91
2022-09-01T22:10:44.421Z,12.95
2022-09-01T22:13:11.564Z,12.90
2022-09-01T22:15:44.291Z,12.88
2022-09-01T22:18:11.358Z,12.61
2022-09-01T22:20:38.390Z,12.52
2022-09-01T22:23:05.004Z,12.74
2022-09-01T22:25:32.902Z,12.85
2022-09-01T22:28:01.729Z,12.77
2022-09-01T22:30:28.320Z,12.68
2022-09-01T22:32:54.866Z,12.65
2022-09-01T22:35:21.550Z,12.56
2022-09-01T22:37:48.819Z,12.49
2022-09-01T22:40:16.167Z,12.43
2022-09-01T22:42:43.196Z,12.48
2022-09-01T22:45:11.582Z,12.56
2022-09-01T22:47:38.792Z,12.64
2022-09-01T22:50:07.280Z,12.59
2022-09-01T22:52:35.531Z,12.52
2022-09-01T22:55:03.293Z,12.49
2022-09-01T22:57:29.934Z,12.44
2022-09-01T22:59:56.618Z,12.32
2022-09-01T23:02:23.410Z,12.28
2022-09-01T23:04:50.381Z,12.13
2022-09-01T23:07:16.887Z,12.19
2022-09-01T23:09:43.384Z,12.08
2022-09-01T23:12:09.867Z,12.06
2022-09-01T23:14:36.349Z,11.93
2022-09-01T23:17:02.932Z,11.83
2022-09-01T23:19:29.486Z,11.86
2022-09-01T23:21:55.954Z,11.81
2022-09-01T23:24:22.742Z,11.76
2022-09-01T23:26:49.751Z,11.62
2022-09-01T23:29:17.325Z,11.58
2022-09-01T23:31:44.221Z,11.61
2022-09-01T23:34:13.172Z,11.56
2022-09-01T23:36:40.351Z,11.63
2022-09-01T23:39:07.166Z,11.54
2022-09-01T23:41:36.880Z,11.41
2022-09-01T23:44:05.848Z,11.61
2022-09-01T23:46:35.153Z,11.59
2022-09-01T23:49:02.349Z,11.61
2022-09-01T23:51:29.863Z,11.53
2022-09-01T23:53:56.757Z,11.52
2022-09-01T23:56:26.495Z,11.38
2022-09-01T23:58:53.235Z,11.36
